createdAt,value
2023-03-03T00:00:33.083Z,4.32
2023-03-03T00:03:00.726Z,3.85
2023-03-03T00:05:26.844Z,4.12
2023-03-03T00:07:52.933Z,4.36
2023-03-03T00:10:19.123Z,4.81
2023-03-03T00:12:48.104Z,4.83
2023-03-03T00:15:19.469Z,4.53
2023-03-03T00:17:45.877Z,4.71
2023-03-03T00:20:29.979Z,4.25
2023-03-03T00:23:00.492Z,4.29
2023-03-03T00:25:31.172Z,4.74
2023-03-03T00:28:15.851Z,3.87
2023-03-03T00:30:41.960Z,4.33
2023-03-03T00:33:31.725Z,4.53
2023-03-03T00:36:27.896Z,4.54
2023-03-03T00:38:54.583Z,4.05
2023-03-03T00:41:26.094Z,3.52
2023-03-03T00:43:53.145Z,4.09
2023-03-03T00:46:22.721Z,3.98
2023-03-03T00:48:50.351Z,3.76
2023-03-03T00:51:22.317Z,3.60
2023-03-03T00:53:48.933Z,2.88
2023-03-03T00:56:15.425Z,2.41
2023-03-03T00:58:43.506Z,4.20
2023-03-03T01:01:09.554Z,2.79
2023-03-03T01:03:35.617Z,2.77
2023-03-03T01:06:01.831Z,1.66
2023-03-03T01:08:27.914Z,3.38
2023-03-03T01:10:56.700Z,4.22
2023-03-03T01:13:25.916Z,4.45
2023-03-03T01:15:52.529Z,3.60
2023-03-03T01:18:18.892Z,4.00
2023-03-03T01:20:45.239Z,4.24
2023-03-03T01:23:11.562Z,4.59
2023-03-03T01:25:37.805Z,-0.50
2023-03-03T01:28:04.183Z,3.20
2023-03-03T01:30:30.700Z,3.66
2023-03-03T01:32:57.250Z,3.89
2023-03-03T01:35:23.620Z,3.83
2023-03-03T01:37:49.948Z,4.34
2023-03-03T01:40:21.936Z,3.04
2023-03-03T01:42:48.432Z,3.27
2023-03-03T01:45:23.343Z,3.41
2023-03-03T01:47:52.364Z,3.60
2023-03-03T01:50:34.493Z,3.75
2023-03-03T01:53:02.807Z,3.98
2023-03-03T01:55:33.640Z,3.75
2023-03-03T01:58:09.989Z,4.00
2023-03-03T02:00:38.155Z,4.02
2023-03-03T02:03:05.021Z,4.47
2023-03-03T02:05:31.833Z,3.63
2023-03-03T02:07:57.903Z,3.99
2023-03-03T02:10:24.180Z,4.10
2023-03-03T02:12:55.714Z,3.78
2023-03-03T02:15:35.303Z,4.26
2023-03-03T02:18:07.172Z,1.96
2023-03-03T02:20:48.970Z,4.77
2023-03-03T02:23:33.156Z,4.60
2023-03-03T02:26:07.504Z,4.80
2023-03-03T02:28:35.329Z,4.32
2023-03-03T02:31:02.077Z,3.62
2023-03-03T02:33:28.896Z,4.07
2023-03-03T02:35:55.275Z,3.30
2023-03-03T02:38:29.349Z,2.97
2023-03-03T02:41:12.861Z,1.95
2023-03-03T02:43:46.570Z,3.98
2023-03-03T02:46:12.670Z,3.78
2023-03-03T02:48:38.741Z,4.54
2023-03-03T02:51:05.067Z,4.58
2023-03-03T02:53:31.192Z,3.13
2023-03-03T02:55:57.326Z,3.89
2023-03-03T02:58:23.447Z,4.16
2023-03-03T03:00:49.796Z,4.20
2023-03-03T03:03:16.089Z,4.67
2023-03-03T03:05:42.193Z,3.91
2023-03-03T03:08:08.465Z,3.91
2023-03-03T03:10:35.341Z,4.24
2023-03-03T03:13:01.510Z,4.43
2023-03-03T03:15:27.619Z,3.82
2023-03-03T03:17:53.703Z,3.15
2023-03-03T03:20:19.811Z,3.44
2023-03-03T03:22:46.238Z,2.54
2023-03-03T03:25:12.324Z,2.96
2023-03-03T03:27:38.430Z,3.49
2023-03-03T03:30:05.040Z,3.59
2023-03-03T03:32:31.189Z,3.96
2023-03-03T03:34:57.334Z,4.25
2023-03-03T03:37:23.492Z,3.45
2023-03-03T03:39:49.673Z,3.66
2023-03-03T03:42:15.816Z,3.86
2023-03-03T03:44:41.946Z,3.58
2023-03-03T03:47:08.090Z,4.06
2023-03-03T03:49:34.179Z,4.54
2023-03-03T03:52:00.297Z,4.48
2023-03-03T03:54:26.480Z,3.95
2023-03-03T03:56:53.895Z,3.53
2023-03-03T03:59:20.492Z,4.16
2023-03-03T04:01:47.585Z,3.86
2023-03-03T04:04:13.774Z,3.45
2023-03-03T04:06:39.835Z,3.71
2023-03-03T04:09:05.937Z,3.48
2023-03-03T04:11:32.013Z,3.93
2023-03-03T04:13:58.165Z,4.19
2023-03-03T04:16:24.373Z,4.03
2023-03-03T04:18:50.520Z,2.94
2023-03-03T04:21:16.615Z,3.32
2023-03-03T04:23:42.706Z,3.67
2023-03-03T04:26:09.027Z,3.62
2023-03-03T04:28:35.372Z,4.05
2023-03-03T04:31:01.614Z,3.71
2023-03-03T04:33:27.706Z,3.63
2023-03-03T04:35:53.845Z,2.59
2023-03-03T04:38:19.972Z,3.73
2023-03-03T04:40:46.073Z,3.41
2023-03-03T04:43:12.589Z,2.59
2023-03-03T04:45:38.695Z,3.03
2023-03-03T04:48:05.326Z,3.87
2023-03-03T04:50:31.432Z,2.90
2023-03-03T04:52:57.526Z,3.13
2023-03-03T04:55:23.648Z,2.96
2023-03-03T04:57:49.749Z,3.12
2023-03-03T05:00:16.229Z,1.90
2023-03-03T05:02:42.456Z,3.17
2023-03-03T05:05:10.005Z,2.37
2023-03-03T05:07:36.145Z,3.45
2023-03-03T05:10:02.314Z,3.69
2023-03-03T05:12:28.562Z,4.04
2023-03-03T05:14:54.674Z,4.09
2023-03-03T05:17:20.726Z,4.10
2023-03-03T05:19:46.774Z,2.78
2023-03-03T05:22:12.903Z,2.55
2023-03-03T05:24:38.999Z,3.29
2023-03-03T05:27:05.176Z,3.67
2023-03-03T05:29:32.736Z,3.38
2023-03-03T05:31:59.884Z,2.48
2023-03-03T05:34:26.273Z,3.27
2023-03-03T05:36:52.376Z,2.31
2023-03-03T05:39:18.441Z,3.02
2023-03-03T05:41:44.503Z,3.26
2023-03-03T05:44:10.713Z,2.87
2023-03-03T05:46:36.849Z,3.43
2023-03-03T05:49:03.053Z,3.25
2023-03-03T05:51:29.159Z,3.42
2023-03-03T05:53:56.544Z,3.17
2023-03-03T05:56:22.698Z,1.53
2023-03-03T05:58:48.837Z,3.60
2023-03-03T06:01:14.999Z,1.94
2023-03-03T06:03:41.090Z,3.55
2023-03-03T06:06:08.495Z,2.80
2023-03-03T06:08:34.590Z,2.63
2023-03-03T06:11:00.853Z,3.62
2023-03-03T06:13:26.963Z,2.81
2023-03-03T06:15:53.045Z,3.56
2023-03-03T06:18:19.115Z,3.83
2023-03-03T06:20:45.185Z,3.88
2023-03-03T06:23:11.278Z,3.66
2023-03-03T06:25:38.699Z,3.34
2023-03-03T06:28:04.895Z,3.75
2023-03-03T06:30:32.597Z,3.38
2023-03-03T06:32:58.680Z,3.51
2023-03-03T06:35:24.835Z,2.46
2023-03-03T06:37:51.130Z,3.49
2023-03-03T06:40:17.388Z,3.60
2023-03-03T06:42:43.485Z,3.90
2023-03-03T06:45:09.928Z,3.74
2023-03-03T06:47:36.085Z,3.25
2023-03-03T06:50:02.207Z,1.81
2023-03-03T06:52:28.312Z,2.57
2023-03-03T06:54:57.017Z,1.69
2023-03-03T06:57:28.953Z,2.74
2023-03-03T06:59:59.901Z,2.64
2023-03-03T07:02:26.003Z,3.50
2023-03-03T07:04:55.413Z,3.11
2023-03-03T07:07:24.270Z,3.63
2023-03-03T07:09:55.358Z,3.86
2023-03-03T07:12:29.704Z,3.76
2023-03-03T07:15:12.082Z,3.69
2023-03-03T07:17:42.043Z,3.98
2023-03-03T07:20:31.964Z,3.93
2023-03-03T07:22:58.059Z,2.00
2023-03-03T07:25:31.991Z,3.49
2023-03-03T07:28:03.775Z,3.88
2023-03-03T07:30:30.175Z,3.94
2023-03-03T07:32:58.084Z,3.41
2023-03-03T07:35:40.463Z,3.78
2023-03-03T07:38:31.652Z,4.09
2023-03-03T07:40:59.273Z,4.03
2023-03-03T07:43:34.053Z,4.07
2023-03-03T07:46:24.972Z,3.16
2023-03-03T07:48:51.640Z,3.42
2023-03-03T07:51:26.214Z,3.92
2023-03-03T07:53:53.872Z,3.05
2023-03-03T07:56:29.872Z,2.63
2023-03-03T07:58:56.723Z,2.34
2023-03-03T08:01:54.538Z,2.63
2023-03-03T08:04:42.216Z,2.98
2023-03-03T08:07:15.783Z,2.53
2023-03-03T08:09:54.052Z,2.84
2023-03-03T08:12:39.409Z,2.92
2023-03-03T08:15:22.207Z,2.42
2023-03-03T08:17:49.392Z,3.13
2023-03-03T08:20:33.900Z,3.81
2023-03-03T08:23:00.032Z,3.96
2023-03-03T08:25:26.128Z,3.70
2023-03-03T08:27:52.304Z,4.32
2023-03-03T08:30:18.491Z,4.06
2023-03-03T08:32:44.544Z,3.15
2023-03-03T08:35:10.753Z,3.86
2023-03-03T08:37:36.812Z,3.81
2023-03-03T08:40:03.209Z,3.73
2023-03-03T08:42:29.458Z,3.92
2023-03-03T08:44:55.569Z,4.24
2023-03-03T08:47:21.729Z,4.71
2023-03-03T08:49:47.866Z,3.86
2023-03-03T08:52:13.950Z,4.02
2023-03-03T08:54:40.080Z,4.58
2023-03-03T08:57:06.145Z,4.68
2023-03-03T08:59:37.051Z,3.92
2023-03-03T09:02:03.234Z,4.17
2023-03-03T09:04:29.399Z,4.48
2023-03-03T09:06:55.580Z,3.84
2023-03-03T09:09:21.731Z,4.36
2023-03-03T09:11:47.825Z,4.63
2023-03-03T09:14:16.329Z,4.58
2023-03-03T09:16:53.027Z,4.80
2023-03-03T09:19:26.240Z,4.33
2023-03-03T09:21:54.611Z,4.69
2023-03-03T09:24:28.580Z,4.50
2023-03-03T09:26:55.496Z,4.71
2023-03-03T09:29:29.640Z,4.83
2023-03-03T09:32:18.634Z,2.29
2023-03-03T09:34:45.844Z,3.78
2023-03-03T09:37:28.759Z,3.73
2023-03-03T09:39:56.763Z,-0.14
2023-03-03T09:43:03.418Z,4.04
2023-03-03T09:45:41.727Z,4.26
2023-03-03T09:48:25.086Z,3.82
2023-03-03T09:51:08.145Z,3.54
2023-03-03T09:53:58.373Z,4.20
2023-03-03T09:56:41.620Z,4.32
2023-03-03T09:59:50.427Z,4.29
2023-03-03T10:02:43.619Z,4.54
2023-03-03T10:05:15.664Z,4.11
2023-03-03T10:07:54.431Z,4.27
2023-03-03T10:10:23.575Z,4.42
2023-03-03T10:13:05.648Z,4.87
2023-03-03T10:16:08.352Z,3.28
2023-03-03T10:18:55.388Z,4.05
2023-03-03T10:21:29.642Z,3.65
2023-03-03T10:24:05.282Z,4.54
2023-03-03T10:27:12.320Z,4.33
2023-03-03T10:29:48.191Z,4.80
2023-03-03T10:32:49.323Z,4.47
2023-03-03T10:35:27.907Z,4.06
2023-03-03T10:38:18.525Z,4.72
2023-03-03T10:40:50.390Z,4.69
2023-03-03T10:43:30.980Z,4.72
2023-03-03T10:46:21.971Z,4.17
2023-03-03T10:48:48.029Z,5.10
2023-03-03T10:51:24.278Z,4.86
2023-03-03T10:54:12.174Z,4.08
2023-03-03T10:56:52.955Z,5.09
2023-03-03T10:59:33.111Z,4.83
2023-03-03T11:02:06.165Z,4.99
2023-03-03T11:04:56.554Z,5.31
2023-03-03T11:07:35.058Z,4.78
2023-03-03T11:10:21.279Z,4.26
2023-03-03T11:13:29.412Z,5.03
2023-03-03T11:16:09.537Z,3.38
2023-03-03T11:18:54.294Z,4.02
2023-03-03T11:21:39.100Z,4.94
2023-03-03T11:24:34.517Z,5.02
2023-03-03T11:27:12.652Z,4.23
2023-03-03T11:30:12.550Z,4.40
2023-03-03T11:32:58.156Z,5.29
2023-03-03T11:36:09.367Z,3.57
2023-03-03T11:38:50.789Z,4.21
2023-03-03T11:41:28.961Z,4.74
2023-03-03T11:44:21.629Z,4.88
2023-03-03T11:46:52.273Z,3.54
2023-03-03T11:49:27.775Z,4.16
2023-03-03T11:52:06.729Z,5.03
2023-03-03T11:54:47.980Z,4.19
2023-03-03T11:57:20.209Z,4.05
2023-03-03T11:59:59.592Z,4.79
2023-03-03T12:02:47.519Z,5.25
2023-03-03T12:05:27.792Z,3.86
2023-03-03T12:08:04.333Z,4.67
2023-03-03T12:10:36.201Z,5.06
2023-03-03T12:13:06.445Z,5.25
2023-03-03T12:15:37.941Z,4.49
2023-03-03T12:18:08.033Z,3.93
2023-03-03T12:21:12.594Z,4.39
2023-03-03T12:24:29.457Z,4.49
2023-03-03T12:27:19.983Z,5.42
2023-03-03T12:30:06.545Z,4.52
2023-03-03T12:32:48.039Z,2.73
2023-03-03T12:35:34.633Z,5.62
2023-03-03T12:38:10.083Z,3.97
2023-03-03T12:40:42.605Z,3.76
2023-03-03T12:43:17.952Z,5.47
2023-03-03T12:46:01.371Z,5.32
2023-03-03T12:48:30.916Z,4.93
2023-03-03T12:51:10.470Z,5.70
2023-03-03T12:53:42.532Z,5.81
2023-03-03T12:56:11.627Z,5.11
2023-03-03T12:58:40.750Z,4.48
2023-03-03T13:01:10.324Z,5.55
2023-03-03T13:03:56.159Z,5.12
2023-03-03T13:06:29.226Z,4.80
2023-03-03T13:09:14.017Z,5.44
2023-03-03T13:11:54.015Z,5.50
2023-03-03T13:14:44.521Z,5.55
2023-03-03T13:17:42.998Z,6.06
2023-03-03T13:20:29.569Z,5.83
2023-03-03T13:23:16.094Z,4.93
2023-03-03T13:25:50.176Z,5.12
2023-03-03T13:28:21.482Z,1.13
2023-03-03T13:30:50.310Z,4.08
2023-03-03T13:33:29.520Z,6.14
2023-03-03T13:36:02.573Z,4.07
2023-03-03T13:38:36.208Z,4.90
2023-03-03T13:41:50.432Z,4.26
2023-03-03T13:44:24.882Z,5.32
2023-03-03T13:47:44.632Z,5.31
2023-03-03T13:50:13.328Z,5.36
2023-03-03T13:52:47.400Z,5.19
2023-03-03T13:55:22.198Z,5.42
2023-03-03T13:58:00.996Z,5.45
2023-03-03T14:00:30.552Z,5.66
2023-03-03T14:03:18.795Z,5.53
2023-03-03T14:05:48.562Z,5.91
2023-03-03T14:08:54.802Z,6.03
2023-03-03T14:11:41.922Z,5.23
2023-03-03T14:14:37.362Z,5.42
2023-03-03T14:17:26.189Z,4.27
2023-03-03T14:20:18.717Z,4.64
2023-03-03T14:22:51.911Z,5.09
2023-03-03T14:25:18.122Z,3.67
2023-03-03T14:27:44.218Z,5.25
2023-03-03T14:30:22.564Z,6.07
2023-03-03T14:33:06.819Z,4.87
2023-03-03T14:35:36.937Z,5.43
2023-03-03T14:38:18.947Z,4.35
2023-03-03T14:40:46.640Z,5.24
2023-03-03T14:43:24.203Z,5.91
2023-03-03T14:45:51.987Z,5.26
2023-03-03T14:48:20.564Z,4.65
2023-03-03T14:50:57.608Z,5.89
2023-03-03T14:53:33.642Z,5.87
2023-03-03T14:56:25.334Z,5.80
2023-03-03T14:58:53.551Z,5.04
2023-03-03T15:01:28.956Z,4.54
2023-03-03T15:03:59.514Z,5.47
2023-03-03T15:06:41.942Z,5.08
2023-03-03T15:09:42.869Z,5.55
2023-03-03T15:12:27.072Z,5.88
2023-03-03T15:15:04.792Z,6.20
2023-03-03T15:17:39.428Z,5.99
2023-03-03T15:20:23.831Z,4.64
2023-03-03T15:23:10.212Z,3.90
2023-03-03T15:25:52.239Z,4.35
2023-03-03T15:28:29.267Z,4.89
2023-03-03T15:31:01.533Z,5.64
2023-03-03T15:33:32.996Z,5.10
2023-03-03T15:36:32.600Z,4.33
2023-03-03T15:39:26.352Z,4.77
2023-03-03T15:42:11.047Z,4.75
2023-03-03T15:45:01.303Z,0.65
2023-03-03T15:47:45.592Z,5.07
2023-03-03T15:50:21.418Z,3.78
2023-03-03T15:53:08.932Z,4.67
2023-03-03T15:55:59.326Z,4.57
2023-03-03T15:58:53.401Z,4.52
2023-03-03T16:01:44.385Z,3.66
2023-03-03T16:04:24.983Z,3.50
2023-03-03T16:06:57.622Z,3.42
2023-03-03T16:09:51.708Z,4.32
2023-03-03T16:12:20.645Z,4.29
2023-03-03T16:15:23.764Z,4.59
2023-03-03T16:18:11.315Z,4.46
2023-03-03T16:20:59.931Z,3.72
2023-03-03T16:23:38.393Z,4.83
2023-03-03T16:26:26.028Z,4.93
2023-03-03T16:29:04.322Z,5.35
2023-03-03T16:31:42.581Z,4.74
2023-03-03T16:34:39.426Z,4.80
2023-03-03T16:37:35.709Z,4.70
2023-03-03T16:40:20.229Z,4.57
2023-03-03T16:42:49.107Z,4.49
2023-03-03T16:45:24.301Z,5.19
2023-03-03T16:47:56.579Z,5.51
2023-03-03T16:50:37.685Z,5.51
2023-03-03T16:53:17.023Z,5.46
2023-03-03T16:56:04.736Z,5.58
2023-03-03T16:58:43.133Z,5.53
2023-03-03T17:01:42.614Z,5.61
2023-03-03T17:04:40.291Z,5.61
2023-03-03T17:07:54.660Z,5.45
2023-03-03T17:10:26.770Z,4.51
2023-03-03T17:13:11.310Z,5.40
2023-03-03T17:15:53.623Z,5.31
2023-03-03T17:18:38.889Z,5.43
2023-03-03T17:21:14.639Z,5.46
2023-03-03T17:23:48.756Z,5.49
2023-03-03T17:26:22.696Z,5.42
2023-03-03T17:29:25.524Z,5.47
2023-03-03T17:32:02.519Z,3.97
2023-03-03T17:34:44.071Z,4.47
2023-03-03T17:37:24.325Z,4.11
2023-03-03T17:40:05.143Z,4.19
2023-03-03T17:42:33.752Z,4.46
2023-03-03T17:45:08.409Z,3.43
2023-03-03T17:47:46.697Z,4.57
2023-03-03T17:50:33.865Z,3.98
2023-03-03T17:53:12.240Z,4.24
2023-03-03T17:55:44.061Z,3.66
2023-03-03T17:58:19.319Z,3.56
2023-03-03T18:00:57.497Z,3.65
2023-03-03T18:03:32.050Z,2.99
2023-03-03T18:06:22.416Z,4.25
2023-03-03T18:09:14.337Z,4.08
2023-03-03T18:12:00.284Z,3.67
2023-03-03T18:14:47.802Z,4.42
2023-03-03T18:17:23.002Z,4.25
2023-03-03T18:20:12.816Z,3.94
2023-03-03T18:22:44.464Z,4.24
2023-03-03T18:25:15.996Z,4.34
2023-03-03T18:27:43.896Z,3.06
2023-03-03T18:30:09.958Z,4.00
2023-03-03T18:32:54.534Z,4.30
2023-03-03T18:35:34.166Z,4.53
2023-03-03T18:38:15.598Z,4.15
2023-03-03T18:41:11.766Z,4.48
2023-03-03T18:43:44.115Z,4.38
2023-03-03T18:46:31.823Z,3.69
2023-03-03T18:49:01.846Z,4.34
2023-03-03T18:51:34.153Z,4.42
2023-03-03T18:54:06.227Z,4.38
2023-03-03T18:56:50.137Z,4.42
2023-03-03T18:59:52.962Z,4.82
2023-03-03T19:02:35.098Z,4.88
2023-03-03T19:05:14.947Z,4.89
2023-03-03T19:07:41.055Z,4.70
2023-03-03T19:10:19.428Z,4.87
2023-03-03T19:12:53.122Z,5.00
2023-03-03T19:15:35.030Z,5.05
2023-03-03T19:18:13.028Z,5.20
2023-03-03T19:21:25.149Z,5.14
2023-03-03T19:23:59.889Z,5.11
2023-03-03T19:26:28.272Z,5.20
2023-03-03T19:29:19.776Z,5.26
2023-03-03T19:32:04.578Z,5.15
2023-03-03T19:34:56.662Z,5.00
2023-03-03T19:38:00.746Z,5.25
2023-03-03T19:40:47.250Z,5.11
2023-03-03T19:43:29.706Z,5.28
2023-03-03T19:46:04.008Z,5.27
2023-03-03T19:48:32.850Z,5.30
2023-03-03T19:51:22.353Z,5.19
2023-03-03T19:53:58.141Z,5.13
2023-03-03T19:56:37.555Z,0.74
2023-03-03T19:59:13.004Z,5.23
2023-03-03T20:01:55.690Z,4.94
2023-03-03T20:04:37.538Z,5.29
2023-03-03T20:07:11.019Z,5.28
2023-03-03T20:09:58.251Z,5.23
2023-03-03T20:12:53.541Z,5.41
2023-03-03T20:15:24.040Z,5.54
2023-03-03T20:18:03.168Z,5.56
2023-03-03T20:20:50.480Z,5.47
2023-03-03T20:23:58.959Z,5.09
2023-03-03T20:26:25.080Z,5.14
2023-03-03T20:29:01.826Z,4.97
2023-03-03T20:31:36.740Z,5.26
2023-03-03T20:34:10.850Z,5.21
2023-03-03T20:36:45.731Z,5.35
2023-03-03T20:39:38.136Z,5.21
2023-03-03T20:42:13.542Z,5.34
2023-03-03T20:44:59.144Z,4.81
2023-03-03T20:47:45.224Z,5.14
2023-03-03T20:50:20.726Z,4.60
2023-03-03T20:53:13.236Z,5.07
2023-03-03T20:55:45.054Z,4.98
2023-03-03T20:58:26.658Z,5.30
2023-03-03T21:01:03.552Z,4.94
2023-03-03T21:03:38.072Z,5.39
2023-03-03T21:06:15.521Z,5.53
2023-03-03T21:08:54.121Z,5.41
2023-03-03T21:11:28.972Z,5.48
2023-03-03T21:13:55.302Z,5.35
2023-03-03T21:16:22.123Z,5.38
2023-03-03T21:18:57.996Z,5.41
2023-03-03T21:21:25.569Z,5.55
2023-03-03T21:23:51.661Z,5.05
2023-03-03T21:26:43.301Z,5.65
2023-03-03T21:29:15.901Z,5.65
2023-03-03T21:31:46.931Z,5.50
2023-03-03T21:34:23.048Z,5.42
2023-03-03T21:36:49.767Z,5.41
2023-03-03T21:39:24.956Z,5.24
2023-03-03T21:41:54.609Z,5.82
2023-03-03T21:44:49.213Z,5.69
2023-03-03T21:47:17.067Z,5.80
2023-03-03T21:49:44.941Z,4.93
2023-03-03T21:52:13.715Z,5.81
2023-03-03T21:54:40.064Z,5.66
2023-03-03T21:57:06.676Z,5.40
2023-03-03T21:59:32.845Z,5.81
2023-03-03T22:01:59.000Z,5.88
2023-03-03T22:04:25.408Z,5.40
2023-03-03T22:06:52.086Z,5.72
2023-03-03T22:09:18.425Z,4.60
2023-03-03T22:11:44.646Z,5.53
2023-03-03T22:14:10.748Z,5.81
2023-03-03T22:16:36.911Z,5.67
2023-03-03T22:19:03.443Z,5.51
2023-03-03T22:21:30.283Z,5.56
2023-03-03T22:23:57.185Z,5.21
2023-03-03T22:26:23.500Z,3.71
2023-03-03T22:28:49.646Z,5.21
2023-03-03T22:31:16.793Z,5.22
2023-03-03T22:33:42.965Z,5.52
2023-03-03T22:36:09.231Z,5.80
2023-03-03T22:38:35.429Z,5.79
2023-03-03T22:41:01.654Z,4.71
2023-03-03T22:43:29.040Z,5.11
2023-03-03T22:45:56.021Z,4.65
2023-03-03T22:48:26.347Z,5.87
2023-03-03T22:50:52.670Z,5.91
2023-03-03T22:53:19.249Z,5.49
2023-03-03T22:55:45.582Z,5.81
2023-03-03T22:58:12.408Z,5.60
2023-03-03T23:00:40.940Z,5.74
2023-03-03T23:03:08.537Z,5.09
2023-03-03T23:05:35.779Z,5.70
2023-03-03T23:08:03.816Z,5.15
2023-03-03T23:10:30.083Z,5.45
2023-03-03T23:12:56.193Z,5.79
2023-03-03T23:15:22.374Z,5.74
2023-03-03T23:17:48.575Z,5.06
2023-03-03T23:20:20.238Z,5.68
2023-03-03T23:22:46.318Z,5.19
2023-03-03T23:25:13.848Z,5.73
2023-03-03T23:27:40.973Z,5.65
2023-03-03T23:30:11.150Z,5.65
2023-03-03T23:32:37.231Z,5.81
2023-03-03T23:35:03.808Z,5.97
2023-03-03T23:37:30.944Z,5.93
2023-03-03T23:39:57.099Z,5.29
2023-03-03T23:42:24.349Z,5.95
2023-03-03T23:44:50.451Z,6.00
2023-03-03T23:47:16.507Z,6.06
2023-03-03T23:49:42.576Z,6.04
2023-03-03T23:52:08.738Z,5.71
2023-03-03T23:54:34.877Z,5.61
2023-03-03T23:57:00.964Z,5.23
2023-03-03T23:59:27.064Z,5.93
